sensor_id;sensor_type;location;lat;lon;timestamp;P1;durP1;ratioP1;P2;durP2;ratioP2
73266;SDS011;61495;53.400;7.608;2023-12-20T00:01:00;10.30;;;2.03;;
73266;SDS011;61495;53.400;7.608;2023-12-20T00:03:25;8.25;;;1.67;;
73266;SDS011;61495;53.400;7.608;2023-12-20T00:05:51;6.43;;;1.40;;
73266;SDS011;61495;53.400;7.608;2023-12-20T00:08:16;9.80;;;1.60;;
73266;SDS011;61495;53.400;7.608;2023-12-20T00:10:43;8.45;;;2.35;;
73266;SDS011;61495;53.400;7.608;2023-12-20T00:13:09;8.40;;;1.30;;
73266;SDS011;61495;53.400;7.608;2023-12-20T00:15:34;5.20;;;1.80;;
73266;SDS011;61495;53.400;7.608;2023-12-20T00:18:00;8.55;;;1.30;;
73266;SDS011;61495;53.400;7.608;2023-12-20T00:20:26;15.98;;;1.75;;
73266;SDS011;61495;53.400;7.608;2023-12-20T00:22:51;4.85;;;1.33;;
73266;SDS011;61495;53.400;7.608;2023-12-20T00:25:17;7.05;;;1.33;;
73266;SDS011;61495;53.400;7.608;2023-12-20T00:27:43;6.63;;;1.30;;
73266;SDS011;61495;53.400;7.608;2023-12-20T00:30:08;11.15;;;1.70;;
73266;SDS011;61495;53.400;7.608;2023-12-20T00:32:35;4.72;;;1.00;;
73266;SDS011;61495;53.400;7.608;2023-12-20T00:35:01;4.75;;;1.52;;
73266;SDS011;61495;53.400;7.608;2023-12-20T00:37:26;6.32;;;1.25;;
73266;SDS011;61495;53.400;7.608;2023-12-20T00:39:52;7.90;;;1.60;;
73266;SDS011;61495;53.400;7.608;2023-12-20T00:42:17;3.97;;;0.98;;
73266;SDS011;61495;53.400;7.608;2023-12-20T00:44:42;8.25;;;1.50;;
73266;SDS011;61495;53.400;7.608;2023-12-20T00:47:08;8.25;;;1.60;;
73266;SDS011;61495;53.400;7.608;2023-12-20T00:49:33;7.80;;;1.05;;
73266;SDS011;61495;53.400;7.608;2023-12-20T00:51:58;7.83;;;1.23;;
73266;SDS011;61495;53.400;7.608;2023-12-20T00:54:24;6.50;;;1.50;;
73266;SDS011;61495;53.400;7.608;2023-12-20T00:56:49;6.63;;;1.50;;
73266;SDS011;61495;53.400;7.608;2023-12-20T00:59:14;7.78;;;1.55;;
73266;SDS011;61495;53.400;7.608;2023-12-20T01:01:41;9.63;;;1.20;;
73266;SDS011;61495;53.400;7.608;2023-12-20T01:04:07;7.20;;;1.13;;
73266;SDS011;61495;53.400;7.608;2023-12-20T01:06:32;6.43;;;1.05;;
73266;SDS011;61495;53.400;7.608;2023-12-20T01:08:58;5.70;;;1.10;;
73266;SDS011;61495;53.400;7.608;2023-12-20T01:11:23;5.70;;;1.10;;
73266;SDS011;61495;53.400;7.608;2023-12-20T01:13:48;3.83;;;1.00;;
73266;SDS011;61495;53.400;7.608;2023-12-20T01:16:14;4.20;;;1.37;;
73266;SDS011;61495;53.400;7.608;2023-12-20T01:18:39;7.03;;;1.38;;
73266;SDS011;61495;53.400;7.608;2023-12-20T01:21:04;4.53;;;0.90;;
73266;SDS011;61495;53.400;7.608;2023-12-20T01:23:30;6.15;;;1.58;;
73266;SDS011;61495;53.400;7.608;2023-12-20T01:25:55;5.20;;;1.10;;
73266;SDS011;61495;53.400;7.608;2023-12-20T01:28:21;5.85;;;1.40;;
73266;SDS011;61495;53.400;7.608;2023-12-20T01:30:46;6.97;;;1.37;;
73266;SDS011;61495;53.400;7.608;2023-12-20T01:33:12;5.65;;;1.30;;
73266;SDS011;61495;53.400;7.608;2023-12-20T01:35:37;4.70;;;0.80;;
73266;SDS011;61495;53.400;7.608;2023-12-20T01:38:02;6.55;;;1.73;;
73266;SDS011;61495;53.400;7.608;2023-12-20T01:40:28;9.55;;;2.22;;
73266;SDS011;61495;53.400;7.608;2023-12-20T01:43:00;8.27;;;1.25;;
73266;SDS011;61495;53.400;7.608;2023-12-20T01:45:33;5.85;;;1.55;;
73266;SDS011;61495;53.400;7.608;2023-12-20T01:47:59;7.93;;;1.42;;
73266;SDS011;61495;53.400;7.608;2023-12-20T01:50:25;4.05;;;1.15;;
73266;SDS011;61495;53.400;7.608;2023-12-20T01:52:50;7.85;;;1.10;;
73266;SDS011;61495;53.400;7.608;2023-12-20T01:55:20;10.68;;;1.60;;
73266;SDS011;61495;53.400;7.608;2023-12-20T01:57:46;8.85;;;1.27;;
73266;SDS011;61495;53.400;7.608;2023-12-20T02:00:15;5.25;;;0.90;;
73266;SDS011;61495;53.400;7.608;2023-12-20T02:02:41;4.15;;;1.15;;
73266;SDS011;61495;53.400;7.608;2023-12-20T02:05:06;6.20;;;1.02;;
73266;SDS011;61495;53.400;7.608;2023-12-20T02:07:33;7.07;;;1.42;;
73266;SDS011;61495;53.400;7.608;2023-12-20T02:10:00;9.38;;;1.73;;
73266;SDS011;61495;53.400;7.608;2023-12-20T02:12:25;7.38;;;1.20;;
73266;SDS011;61495;53.400;7.608;2023-12-20T02:14:51;6.82;;;1.20;;
73266;SDS011;61495;53.400;7.608;2023-12-20T02:17:16;7.25;;;1.02;;
73266;SDS011;61495;53.400;7.608;2023-12-20T02:19:42;8.57;;;1.00;;
73266;SDS011;61495;53.400;7.608;2023-12-20T02:22:11;5.95;;;0.77;;
73266;SDS011;61495;53.400;7.608;2023-12-20T02:24:37;8.00;;;1.45;;
73266;SDS011;61495;53.400;7.608;2023-12-20T02:27:03;6.22;;;1.00;;
73266;SDS011;61495;53.400;7.608;2023-12-20T02:29:32;5.25;;;1.25;;
73266;SDS011;61495;53.400;7.608;2023-12-20T02:32:03;7.82;;;1.40;;
73266;SDS011;61495;53.400;7.608;2023-12-20T02:34:38;7.28;;;1.10;;
73266;SDS011;61495;53.400;7.608;2023-12-20T02:37:22;9.13;;;1.45;;
73266;SDS011;61495;53.400;7.608;2023-12-20T02:40:05;5.07;;;1.10;;
73266;SDS011;61495;53.400;7.608;2023-12-20T02:42:49;6.53;;;1.55;;
73266;SDS011;61495;53.400;7.608;2023-12-20T02:45:32;8.32;;;1.63;;
73266;SDS011;61495;53.400;7.608;2023-12-20T02:50:32;3.00;;;1.47;;
73266;SDS011;61495;53.400;7.608;2023-12-20T02:52:57;5.07;;;1.40;;
73266;SDS011;61495;53.400;7.608;2023-12-20T02:55:23;7.83;;;1.60;;
73266;SDS011;61495;53.400;7.608;2023-12-20T02:57:48;12.07;;;1.37;;
73266;SDS011;61495;53.400;7.608;2023-12-20T03:00:13;17.23;;;2.27;;
73266;SDS011;61495;53.400;7.608;2023-12-20T03:02:39;4.45;;;0.90;;
73266;SDS011;61495;53.400;7.608;2023-12-20T03:05:04;6.30;;;1.80;;
73266;SDS011;61495;53.400;7.608;2023-12-20T03:07:30;6.22;;;1.55;;
73266;SDS011;61495;53.400;7.608;2023-12-20T03:09:55;4.40;;;1.17;;
73266;SDS011;61495;53.400;7.608;2023-12-20T03:12:21;10.27;;;2.20;;
73266;SDS011;61495;53.400;7.608;2023-12-20T03:14:47;8.77;;;1.45;;
73266;SDS011;61495;53.400;7.608;2023-12-20T03:17:13;7.22;;;2.17;;
73266;SDS011;61495;53.400;7.608;2023-12-20T03:19:38;5.60;;;1.47;;
73266;SDS011;61495;53.400;7.608;2023-12-20T03:22:03;5.90;;;1.07;;
73266;SDS011;61495;53.400;7.608;2023-12-20T03:24:29;10.40;;;2.10;;
73266;SDS011;61495;53.400;7.608;2023-12-20T03:26:54;5.60;;;2.10;;
73266;SDS011;61495;53.400;7.608;2023-12-20T03:29:19;7.03;;;1.30;;
73266;SDS011;61495;53.400;7.608;2023-12-20T03:31:45;7.37;;;2.03;;
73266;SDS011;61495;53.400;7.608;2023-12-20T03:34:10;8.23;;;1.70;;
73266;SDS011;61495;53.400;7.608;2023-12-20T03:36:36;7.07;;;1.60;;
73266;SDS011;61495;53.400;7.608;2023-12-20T03:39:01;11.90;;;1.60;;
73266;SDS011;61495;53.400;7.608;2023-12-20T03:41:27;7.35;;;2.05;;
73266;SDS011;61495;53.400;7.608;2023-12-20T03:43:52;7.88;;;1.70;;
73266;SDS011;61495;53.400;7.608;2023-12-20T03:46:17;8.02;;;2.30;;
73266;SDS011;61495;53.400;7.608;2023-12-20T03:48:42;8.63;;;1.45;;
73266;SDS011;61495;53.400;7.608;2023-12-20T03:51:08;9.40;;;1.48;;
73266;SDS011;61495;53.400;7.608;2023-12-20T03:53:33;8.52;;;2.15;;
73266;SDS011;61495;53.400;7.608;2023-12-20T03:55:58;9.27;;;1.47;;
73266;SDS011;61495;53.400;7.608;2023-12-20T03:58:24;7.28;;;1.38;;
73266;SDS011;61495;53.400;7.608;2023-12-20T04:00:49;11.57;;;2.57;;
73266;SDS011;61495;53.400;7.608;2023-12-20T04:03:15;6.05;;;1.67;;
73266;SDS011;61495;53.400;7.608;2023-12-20T04:05:40;8.68;;;1.55;;
73266;SDS011;61495;53.400;7.608;2023-12-20T04:08:06;6.88;;;1.52;;
73266;SDS011;61495;53.400;7.608;2023-12-20T04:10:32;6.65;;;1.58;;
73266;SDS011;61495;53.400;7.608;2023-12-20T04:12:57;10.13;;;1.83;;
73266;SDS011;61495;53.400;7.608;2023-12-20T04:15:22;5.60;;;1.63;;
73266;SDS011;61495;53.400;7.608;2023-12-20T04:17:48;11.00;;;2.60;;
73266;SDS011;61495;53.400;7.608;2023-12-20T04:20:13;9.43;;;1.38;;
73266;SDS011;61495;53.400;7.608;2023-12-20T04:22:39;10.17;;;1.60;;
73266;SDS011;61495;53.400;7.608;2023-12-20T04:25:04;9.17;;;1.83;;
73266;SDS011;61495;53.400;7.608;2023-12-20T04:27:30;9.63;;;2.10;;
73266;SDS011;61495;53.400;7.608;2023-12-20T04:29:55;12.07;;;2.03;;
73266;SDS011;61495;53.400;7.608;2023-12-20T04:32:20;6.32;;;1.33;;
73266;SDS011;61495;53.400;7.608;2023-12-20T04:34:46;11.40;;;2.40;;
73266;SDS011;61495;53.400;7.608;2023-12-20T04:37:11;11.83;;;1.70;;
73266;SDS011;61495;53.400;7.608;2023-12-20T04:39:37;13.02;;;2.15;;
73266;SDS011;61495;53.400;7.608;2023-12-20T04:42:02;12.20;;;2.08;;
73266;SDS011;61495;53.400;7.608;2023-12-20T04:44:28;11.70;;;2.60;;
73266;SDS011;61495;53.400;7.608;2023-12-20T04:46:53;10.67;;;2.30;;
73266;SDS011;61495;53.400;7.608;2023-12-20T04:49:19;9.75;;;1.60;;
73266;SDS011;61495;53.400;7.608;2023-12-20T04:51:44;11.40;;;1.90;;
73266;SDS011;61495;53.400;7.608;2023-12-20T04:54:09;13.48;;;2.00;;
73266;SDS011;61495;53.400;7.608;2023-12-20T04:56:35;8.70;;;2.00;;
73266;SDS011;61495;53.400;7.608;2023-12-20T04:59:01;10.63;;;2.35;;
73266;SDS011;61495;53.400;7.608;2023-12-20T05:01:27;8.73;;;1.83;;
73266;SDS011;61495;53.400;7.608;2023-12-20T05:03:52;12.48;;;2.47;;
73266;SDS011;61495;53.400;7.608;2023-12-20T05:06:18;15.40;;;2.57;;
73266;SDS011;61495;53.400;7.608;2023-12-20T05:08:43;15.03;;;2.93;;
73266;SDS011;61495;53.400;7.608;2023-12-20T05:11:08;8.55;;;1.80;;
73266;SDS011;61495;53.400;7.608;2023-12-20T05:13:34;8.60;;;2.33;;
73266;SDS011;61495;53.400;7.608;2023-12-20T05:15:59;11.70;;;2.20;;
73266;SDS011;61495;53.400;7.608;2023-12-20T05:18:25;7.85;;;1.33;;
73266;SDS011;61495;53.400;7.608;2023-12-20T05:20:50;10.93;;;1.53;;
73266;SDS011;61495;53.400;7.608;2023-12-20T05:23:16;11.20;;;1.83;;
73266;SDS011;61495;53.400;7.608;2023-12-20T05:25:42;8.90;;;2.47;;
73266;SDS011;61495;53.400;7.608;2023-12-20T05:28:07;7.65;;;1.35;;
73266;SDS011;61495;53.400;7.608;2023-12-20T05:30:32;12.82;;;1.60;;
73266;SDS011;61495;53.400;7.608;2023-12-20T05:32:58;8.30;;;2.07;;
73266;SDS011;61495;53.400;7.608;2023-12-20T05:35:23;13.10;;;3.17;;
73266;SDS011;61495;53.400;7.608;2023-12-20T05:37:49;11.43;;;1.65;;
73266;SDS011;61495;53.400;7.608;2023-12-20T05:40:15;10.20;;;1.42;;
73266;SDS011;61495;53.400;7.608;2023-12-20T05:42:40;10.45;;;2.58;;
73266;SDS011;61495;53.400;7.608;2023-12-20T05:45:06;8.85;;;2.00;;
73266;SDS011;61495;53.400;7.608;2023-12-20T05:47:32;11.48;;;1.95;;
73266;SDS011;61495;53.400;7.608;2023-12-20T05:49:58;12.18;;;2.30;;
73266;SDS011;61495;53.400;7.608;2023-12-20T05:52:23;15.50;;;2.45;;
73266;SDS011;61495;53.400;7.608;2023-12-20T05:54:49;16.98;;;3.65;;
73266;SDS011;61495;53.400;7.608;2023-12-20T05:57:14;13.17;;;2.53;;
73266;SDS011;61495;53.400;7.608;2023-12-20T05:59:40;17.75;;;2.65;;
73266;SDS011;61495;53.400;7.608;2023-12-20T06:02:05;11.75;;;2.10;;
73266;SDS011;61495;53.400;7.608;2023-12-20T06:04:31;10.30;;;3.00;;
73266;SDS011;61495;53.400;7.608;2023-12-20T06:06:56;16.42;;;2.45;;
73266;SDS011;61495;53.400;7.608;2023-12-20T06:09:22;14.25;;;2.63;;
73266;SDS011;61495;53.400;7.608;2023-12-20T06:11:47;18.30;;;2.33;;
73266;SDS011;61495;53.400;7.608;2023-12-20T06:14:13;14.73;;;2.57;;
73266;SDS011;61495;53.400;7.608;2023-12-20T06:16:38;19.87;;;2.70;;
73266;SDS011;61495;53.400;7.608;2023-12-20T06:19:03;14.20;;;2.92;;
73266;SDS011;61495;53.400;7.608;2023-12-20T06:21:29;9.60;;;1.92;;
73266;SDS011;61495;53.400;7.608;2023-12-20T06:23:54;13.77;;;2.42;;
73266;SDS011;61495;53.400;7.608;2023-12-20T06:26:20;13.60;;;2.38;;
73266;SDS011;61495;53.400;7.608;2023-12-20T06:28:45;13.18;;;2.28;;
73266;SDS011;61495;53.400;7.608;2023-12-20T06:31:11;9.63;;;2.33;;
73266;SDS011;61495;53.400;7.608;2023-12-20T06:33:37;11.85;;;2.10;;
73266;SDS011;61495;53.400;7.608;2023-12-20T06:36:05;14.30;;;2.33;;
73266;SDS011;61495;53.400;7.608;2023-12-20T06:38:31;16.58;;;2.90;;
73266;SDS011;61495;53.400;7.608;2023-12-20T06:40:56;10.93;;;2.00;;
73266;SDS011;61495;53.400;7.608;2023-12-20T06:43:23;11.65;;;2.53;;
73266;SDS011;61495;53.400;7.608;2023-12-20T06:45:49;19.58;;;2.38;;
73266;SDS011;61495;53.400;7.608;2023-12-20T06:48:14;14.90;;;2.67;;
73266;SDS011;61495;53.400;7.608;2023-12-20T06:50:39;16.43;;;3.43;;
73266;SDS011;61495;53.400;7.608;2023-12-20T06:53:05;17.20;;;2.47;;
73266;SDS011;61495;53.400;7.608;2023-12-20T06:55:32;5.95;;;1.70;;
73266;SDS011;61495;53.400;7.608;2023-12-20T06:57:58;14.20;;;2.38;;
73266;SDS011;61495;53.400;7.608;2023-12-20T07:00:23;16.67;;;3.03;;
73266;SDS011;61495;53.400;7.608;2023-12-20T07:02:49;15.52;;;3.17;;
73266;SDS011;61495;53.400;7.608;2023-12-20T07:05:18;19.15;;;3.10;;
73266;SDS011;61495;53.400;7.608;2023-12-20T07:07:45;13.75;;;2.90;;
73266;SDS011;61495;53.400;7.608;2023-12-20T07:10:11;11.30;;;2.10;;
73266;SDS011;61495;53.400;7.608;2023-12-20T07:12:36;12.13;;;2.72;;
73266;SDS011;61495;53.400;7.608;2023-12-20T07:15:02;14.37;;;2.87;;
73266;SDS011;61495;53.400;7.608;2023-12-20T07:17:27;14.18;;;3.55;;
73266;SDS011;61495;53.400;7.608;2023-12-20T07:19:53;10.48;;;3.25;;
73266;SDS011;61495;53.400;7.608;2023-12-20T07:22:18;16.97;;;3.80;;
73266;SDS011;61495;53.400;7.608;2023-12-20T07:24:43;18.83;;;2.27;;
73266;SDS011;61495;53.400;7.608;2023-12-20T07:27:09;10.37;;;2.13;;
73266;SDS011;61495;53.400;7.608;2023-12-20T07:29:34;16.52;;;3.28;;
73266;SDS011;61495;53.400;7.608;2023-12-20T07:31:59;12.10;;;3.22;;
73266;SDS011;61495;53.400;7.608;2023-12-20T07:34:25;11.30;;;2.50;;
73266;SDS011;61495;53.400;7.608;2023-12-20T07:36:50;14.45;;;3.08;;
73266;SDS011;61495;53.400;7.608;2023-12-20T07:39:16;16.48;;;2.70;;
73266;SDS011;61495;53.400;7.608;2023-12-20T07:41:41;12.55;;;3.22;;
73266;SDS011;61495;53.400;7.608;2023-12-20T07:44:06;10.40;;;2.80;;
73266;SDS011;61495;53.400;7.608;2023-12-20T07:46:32;16.50;;;3.47;;
73266;SDS011;61495;53.400;7.608;2023-12-20T07:48:57;18.73;;;3.10;;
73266;SDS011;61495;53.400;7.608;2023-12-20T07:51:23;17.07;;;2.50;;
73266;SDS011;61495;53.400;7.608;2023-12-20T07:53:48;19.77;;;3.20;;
73266;SDS011;61495;53.400;7.608;2023-12-20T07:56:17;10.57;;;2.72;;
73266;SDS011;61495;53.400;7.608;2023-12-20T07:58:44;10.73;;;2.22;;
73266;SDS011;61495;53.400;7.608;2023-12-20T08:01:10;12.77;;;2.67;;
73266;SDS011;61495;53.400;7.608;2023-12-20T08:03:36;13.20;;;2.60;;
73266;SDS011;61495;53.400;7.608;2023-12-20T08:06:01;17.88;;;2.83;;
73266;SDS011;61495;53.400;7.608;2023-12-20T08:08:27;9.85;;;2.47;;
73266;SDS011;61495;53.400;7.608;2023-12-20T08:10:53;15.40;;;4.05;;
73266;SDS011;61495;53.400;7.608;2023-12-20T08:13:18;14.05;;;2.58;;
73266;SDS011;61495;53.400;7.608;2023-12-20T08:15:44;8.32;;;1.92;;
73266;SDS011;61495;53.400;7.608;2023-12-20T08:18:09;11.88;;;2.20;;
73266;SDS011;61495;53.400;7.608;2023-12-20T08:20:34;12.07;;;2.97;;
73266;SDS011;61495;53.400;7.608;2023-12-20T08:22:59;17.40;;;3.30;;
73266;SDS011;61495;53.400;7.608;2023-12-20T08:25:25;13.23;;;2.67;;
73266;SDS011;61495;53.400;7.608;2023-12-20T08:27:51;8.07;;;2.05;;
73266;SDS011;61495;53.400;7.608;2023-12-20T08:30:16;8.20;;;1.97;;
73266;SDS011;61495;53.400;7.608;2023-12-20T08:32:47;9.15;;;1.50;;
73266;SDS011;61495;53.400;7.608;2023-12-20T08:35:15;8.32;;;1.20;;
73266;SDS011;61495;53.400;7.608;2023-12-20T08:37:40;4.60;;;1.17;;
73266;SDS011;61495;53.400;7.608;2023-12-20T08:40:06;9.23;;;1.27;;
73266;SDS011;61495;53.400;7.608;2023-12-20T08:42:32;6.38;;;1.20;;
73266;SDS011;61495;53.400;7.608;2023-12-20T08:44:57;5.28;;;1.15;;
73266;SDS011;61495;53.400;7.608;2023-12-20T08:47:26;10.98;;;1.15;;
73266;SDS011;61495;53.400;7.608;2023-12-20T08:49:51;10.18;;;1.45;;
73266;SDS011;61495;53.400;7.608;2023-12-20T08:52:21;8.23;;;1.73;;
73266;SDS011;61495;53.400;7.608;2023-12-20T08:54:47;9.50;;;2.03;;
73266;SDS011;61495;53.400;7.608;2023-12-20T08:57:13;8.38;;;2.28;;
73266;SDS011;61495;53.400;7.608;2023-12-20T08:59:38;11.20;;;2.67;;
73266;SDS011;61495;53.400;7.608;2023-12-20T09:02:04;11.23;;;2.23;;
73266;SDS011;61495;53.400;7.608;2023-12-20T09:04:29;13.52;;;2.10;;
73266;SDS011;61495;53.400;7.608;2023-12-20T09:06:55;6.00;;;1.45;;
73266;SDS011;61495;53.400;7.608;2023-12-20T09:09:20;6.68;;;1.85;;
73266;SDS011;61495;53.400;7.608;2023-12-20T09:11:45;8.18;;;1.40;;
73266;SDS011;61495;53.400;7.608;2023-12-20T09:14:13;6.63;;;1.42;;
73266;SDS011;61495;53.400;7.608;2023-12-20T09:16:38;4.15;;;1.13;;
73266;SDS011;61495;53.400;7.608;2023-12-20T09:19:04;10.43;;;1.23;;
73266;SDS011;61495;53.400;7.608;2023-12-20T09:21:29;4.83;;;1.17;;
73266;SDS011;61495;53.400;7.608;2023-12-20T09:23:54;8.07;;;1.03;;
73266;SDS011;61495;53.400;7.608;2023-12-20T09:26:19;8.30;;;1.30;;
73266;SDS011;61495;53.400;7.608;2023-12-20T09:28:45;5.95;;;1.60;;
73266;SDS011;61495;53.400;7.608;2023-12-20T09:31:11;4.05;;;0.90;;
73266;SDS011;61495;53.400;7.608;2023-12-20T09:33:36;12.30;;;1.13;;
73266;SDS011;61495;53.400;7.608;2023-12-20T09:36:01;4.60;;;0.80;;
73266;SDS011;61495;53.400;7.608;2023-12-20T09:38:27;4.95;;;1.33;;
73266;SDS011;61495;53.400;7.608;2023-12-20T09:40:52;4.10;;;1.30;;
73266;SDS011;61495;53.400;7.608;2023-12-20T09:43:19;5.28;;;1.17;;
73266;SDS011;61495;53.400;7.608;2023-12-20T09:45:47;5.43;;;1.05;;
73266;SDS011;61495;53.400;7.608;2023-12-20T09:48:13;5.25;;;1.35;;
73266;SDS011;61495;53.400;7.608;2023-12-20T09:50:43;6.13;;;0.98;;
73266;SDS011;61495;53.400;7.608;2023-12-20T09:53:11;6.25;;;1.10;;
73266;SDS011;61495;53.400;7.608;2023-12-20T09:55:39;3.50;;;1.13;;
73266;SDS011;61495;53.400;7.608;2023-12-20T09:58:06;7.47;;;1.10;;
73266;SDS011;61495;53.400;7.608;2023-12-20T10:00:33;5.18;;;1.00;;
73266;SDS011;61495;53.400;7.608;2023-12-20T10:02:59;5.60;;;0.80;;
73266;SDS011;61495;53.400;7.608;2023-12-20T10:05:26;6.10;;;0.90;;
73266;SDS011;61495;53.400;7.608;2023-12-20T10:07:53;3.13;;;1.33;;
73266;SDS011;61495;53.400;7.608;2023-12-20T10:10:18;3.93;;;0.80;;
73266;SDS011;61495;53.400;7.608;2023-12-20T10:15:34;8.45;;;1.02;;
73266;SDS011;61495;53.400;7.608;2023-12-20T10:18:01;4.05;;;0.65;;
73266;SDS011;61495;53.400;7.608;2023-12-20T10:20:27;5.65;;;1.65;;
73266;SDS011;61495;53.400;7.608;2023-12-20T10:22:54;7.40;;;1.67;;
73266;SDS011;61495;53.400;7.608;2023-12-20T10:25:23;5.28;;;0.75;;
73266;SDS011;61495;53.400;7.608;2023-12-20T10:27:49;5.95;;;1.05;;
73266;SDS011;61495;53.400;7.608;2023-12-20T10:30:15;6.63;;;0.90;;
73266;SDS011;61495;53.400;7.608;2023-12-20T10:32:41;10.35;;;1.70;;
73266;SDS011;61495;53.400;7.608;2023-12-20T10:35:06;6.50;;;1.15;;
73266;SDS011;61495;53.400;7.608;2023-12-20T10:37:41;6.95;;;1.35;;
73266;SDS011;61495;53.400;7.608;2023-12-20T10:40:06;6.88;;;1.23;;
73266;SDS011;61495;53.400;7.608;2023-12-20T10:42:33;10.23;;;1.60;;
73266;SDS011;61495;53.400;7.608;2023-12-20T10:45:01;10.32;;;1.58;;
73266;SDS011;61495;53.400;7.608;2023-12-20T10:47:26;10.63;;;2.67;;
73266;SDS011;61495;53.400;7.608;2023-12-20T10:49:54;13.45;;;2.72;;
73266;SDS011;61495;53.400;7.608;2023-12-20T10:52:22;12.32;;;2.75;;
73266;SDS011;61495;53.400;7.608;2023-12-20T10:54:48;13.15;;;1.42;;
73266;SDS011;61495;53.400;7.608;2023-12-20T10:57:14;7.53;;;2.80;;
73266;SDS011;61495;53.400;7.608;2023-12-20T10:59:43;9.23;;;2.20;;
73266;SDS011;61495;53.400;7.608;2023-12-20T11:02:12;13.80;;;3.45;;
73266;SDS011;61495;53.400;7.608;2023-12-20T11:04:49;8.03;;;1.77;;
73266;SDS011;61495;53.400;7.608;2023-12-20T11:07:22;12.23;;;2.35;;
73266;SDS011;61495;53.400;7.608;2023-12-20T11:10:34;7.72;;;1.70;;
73266;SDS011;61495;53.400;7.608;2023-12-20T11:15:19;6.93;;;1.67;;
73266;SDS011;61495;53.400;7.608;2023-12-20T11:17:46;12.95;;;1.83;;
73266;SDS011;61495;53.400;7.608;2023-12-20T11:20:11;11.45;;;1.70;;
73266;SDS011;61495;53.400;7.608;2023-12-20T11:22:37;11.60;;;2.10;;
73266;SDS011;61495;53.400;7.608;2023-12-20T11:27:36;11.35;;;1.85;;
73266;SDS011;61495;53.400;7.608;2023-12-20T11:30:05;6.43;;;1.75;;
73266;SDS011;61495;53.400;7.608;2023-12-20T11:32:35;15.25;;;2.17;;
73266;SDS011;61495;53.400;7.608;2023-12-20T11:37:35;4.88;;;1.40;;
73266;SDS011;61495;53.400;7.608;2023-12-20T11:40:03;12.65;;;1.85;;
73266;SDS011;61495;53.400;7.608;2023-12-20T11:42:52;6.38;;;1.60;;
73266;SDS011;61495;53.400;7.608;2023-12-20T11:45:22;9.38;;;1.83;;
73266;SDS011;61495;53.400;7.608;2023-12-20T11:47:49;9.60;;;1.70;;
73266;SDS011;61495;53.400;7.608;2023-12-20T11:50:16;6.65;;;2.05;;
73266;SDS011;61495;53.400;7.608;2023-12-20T11:52:46;7.00;;;1.63;;
73266;SDS011;61495;53.400;7.608;2023-12-20T11:55:13;6.63;;;1.70;;
73266;SDS011;61495;53.400;7.608;2023-12-20T11:57:38;6.43;;;1.40;;
73266;SDS011;61495;53.400;7.608;2023-12-20T12:00:04;8.48;;;1.58;;
73266;SDS011;61495;53.400;7.608;2023-12-20T12:02:31;8.05;;;1.70;;
73266;SDS011;61495;53.400;7.608;2023-12-20T12:04:57;7.63;;;1.30;;
73266;SDS011;61495;53.400;7.608;2023-12-20T12:07:24;7.43;;;1.42;;
73266;SDS011;61495;53.400;7.608;2023-12-20T12:09:49;9.27;;;1.50;;
73266;SDS011;61495;53.400;7.608;2023-12-20T12:12:14;9.40;;;1.70;;
73266;SDS011;61495;53.400;7.608;2023-12-20T12:14:40;8.48;;;2.25;;
73266;SDS011;61495;53.400;7.608;2023-12-20T12:17:15;10.13;;;2.00;;
73266;SDS011;61495;53.400;7.608;2023-12-20T12:19:43;9.38;;;2.20;;
73266;SDS011;61495;53.400;7.608;2023-12-20T12:22:12;11.82;;;2.08;;
73266;SDS011;61495;53.400;7.608;2023-12-20T12:24:42;13.52;;;2.53;;
73266;SDS011;61495;53.400;7.608;2023-12-20T12:27:08;10.57;;;2.35;;
73266;SDS011;61495;53.400;7.608;2023-12-20T12:29:35;11.07;;;1.92;;
73266;SDS011;61495;53.400;7.608;2023-12-20T12:32:01;13.13;;;2.55;;
73266;SDS011;61495;53.400;7.608;2023-12-20T12:34:30;7.93;;;1.73;;
73266;SDS011;61495;53.400;7.608;2023-12-20T12:36:56;12.23;;;2.17;;
73266;SDS011;61495;53.400;7.608;2023-12-20T12:39:24;16.52;;;2.08;;
73266;SDS011;61495;53.400;7.608;2023-12-20T12:41:50;8.43;;;1.90;;
73266;SDS011;61495;53.400;7.608;2023-12-20T12:44:16;10.95;;;2.38;;
73266;SDS011;61495;53.400;7.608;2023-12-20T12:46:42;7.95;;;1.98;;
73266;SDS011;61495;53.400;7.608;2023-12-20T12:49:08;11.23;;;3.25;;
73266;SDS011;61495;53.400;7.608;2023-12-20T12:51:34;11.50;;;2.03;;
73266;SDS011;61495;53.400;7.608;2023-12-20T12:53:59;9.18;;;2.15;;
73266;SDS011;61495;53.400;7.608;2023-12-20T12:56:25;12.73;;;2.30;;
73266;SDS011;61495;53.400;7.608;2023-12-20T12:58:51;10.70;;;2.35;;
73266;SDS011;61495;53.400;7.608;2023-12-20T13:01:16;13.13;;;2.03;;
73266;SDS011;61495;53.400;7.608;2023-12-20T13:03:41;11.32;;;1.85;;
73266;SDS011;61495;53.400;7.608;2023-12-20T13:06:06;13.17;;;2.57;;
73266;SDS011;61495;53.400;7.608;2023-12-20T13:08:34;10.98;;;2.55;;
73266;SDS011;61495;53.400;7.608;2023-12-20T13:10:59;10.60;;;1.75;;
73266;SDS011;61495;53.400;7.608;2023-12-20T13:13:26;7.25;;;2.00;;
73266;SDS011;61495;53.400;7.608;2023-12-20T13:15:52;15.00;;;3.05;;
73266;SDS011;61495;53.400;7.608;2023-12-20T13:18:20;13.90;;;2.80;;
73266;SDS011;61495;53.400;7.608;2023-12-20T13:20:48;15.52;;;2.25;;
73266;SDS011;61495;53.400;7.608;2023-12-20T13:23:14;17.90;;;3.28;;
73266;SDS011;61495;53.400;7.608;2023-12-20T13:25:40;10.55;;;1.95;;
73266;SDS011;61495;53.400;7.608;2023-12-20T13:28:05;10.10;;;2.58;;
73266;SDS011;61495;53.400;7.608;2023-12-20T13:30:31;10.77;;;2.67;;
73266;SDS011;61495;53.400;7.608;2023-12-20T13:32:56;18.88;;;2.50;;
73266;SDS011;61495;53.400;7.608;2023-12-20T13:35:22;13.80;;;2.10;;
73266;SDS011;61495;53.400;7.608;2023-12-20T13:37:47;8.60;;;2.13;;
73266;SDS011;61495;53.400;7.608;2023-12-20T13:40:13;20.33;;;2.40;;
73266;SDS011;61495;53.400;7.608;2023-12-20T13:42:39;9.77;;;2.00;;
73266;SDS011;61495;53.400;7.608;2023-12-20T13:45:05;14.48;;;2.17;;
73266;SDS011;61495;53.400;7.608;2023-12-20T13:47:31;12.02;;;2.13;;
73266;SDS011;61495;53.400;7.608;2023-12-20T13:49:57;7.95;;;2.42;;
73266;SDS011;61495;53.400;7.608;2023-12-20T13:52:23;9.77;;;1.70;;
73266;SDS011;61495;53.400;7.608;2023-12-20T13:54:49;10.98;;;1.90;;
73266;SDS011;61495;53.400;7.608;2023-12-20T13:57:14;5.50;;;1.57;;
73266;SDS011;61495;53.400;7.608;2023-12-20T13:59:43;9.50;;;1.50;;
73266;SDS011;61495;53.400;7.608;2023-12-20T14:02:10;12.20;;;2.15;;
73266;SDS011;61495;53.400;7.608;2023-12-20T14:04:35;8.25;;;1.35;;
73266;SDS011;61495;53.400;7.608;2023-12-20T14:07:01;15.75;;;2.10;;
73266;SDS011;61495;53.400;7.608;2023-12-20T14:09:30;10.77;;;1.52;;
73266;SDS011;61495;53.400;7.608;2023-12-20T14:11:56;9.27;;;1.88;;
73266;SDS011;61495;53.400;7.608;2023-12-20T14:14:22;5.40;;;1.75;;
73266;SDS011;61495;53.400;7.608;2023-12-20T14:16:47;7.95;;;1.75;;
73266;SDS011;61495;53.400;7.608;2023-12-20T14:19:13;6.65;;;1.73;;
73266;SDS011;61495;53.400;7.608;2023-12-20T14:21:38;8.43;;;1.63;;
73266;SDS011;61495;53.400;7.608;2023-12-20T14:24:03;7.07;;;1.33;;
73266;SDS011;61495;53.400;7.608;2023-12-20T14:26:29;7.10;;;2.08;;
73266;SDS011;61495;53.400;7.608;2023-12-20T14:28:56;4.40;;;1.05;;
73266;SDS011;61495;53.400;7.608;2023-12-20T14:31:21;7.13;;;1.58;;
73266;SDS011;61495;53.400;7.608;2023-12-20T14:33:49;6.32;;;1.48;;
73266;SDS011;61495;53.400;7.608;2023-12-20T14:36:16;5.63;;;1.10;;
73266;SDS011;61495;53.400;7.608;2023-12-20T14:38:44;7.22;;;1.60;;
73266;SDS011;61495;53.400;7.608;2023-12-20T14:41:12;7.53;;;1.23;;
73266;SDS011;61495;53.400;7.608;2023-12-20T14:43:38;6.63;;;1.37;;
73266;SDS011;61495;53.400;7.608;2023-12-20T14:46:03;8.32;;;1.23;;
73266;SDS011;61495;53.400;7.608;2023-12-20T14:48:30;7.18;;;1.25;;
73266;SDS011;61495;53.400;7.608;2023-12-20T14:50:57;5.95;;;1.60;;